Hampton, VA (23666)

7:19 AM EDT on April 19, 2015 (GMT -0400)
Northampton | | Change Station
CLOSE
Current Station
Personal Weather Station
Location: Hampton, VA
Elevation: 23 ft
Nearby Weather Stations
Active Advisory: Special Statement

Elev 23 ft 37.05 °N, 76.42 °W | Updated 3 minutes ago

Partly Cloudy
Partly Cloudy
59.2 °F
Feels Like 59.2 °F
N
3.8
Wind Variable Wind from SE
Gusts 5.4 mph

Today
High -- | Low -- °F
--% Chance of Precip.
Yesterday
High -- | Low -- °F
Precip. -- in
6:26 AM 7:43 PM
New Moon, 1% visible
Pressure 30.08 in
Visibility 7.0 miles
Clouds Few 1100 ft
Dew Point 3 °F
Humidity 10%
Rainfall 0.00 in
Snow Depth Not available.
UV 0 out of 12
Pollen 7.90 out of 12
Air Quality Not available.
Flu Activity Local Activity
METAR KLFI 191058Z AUTO 04011KT 7SM FEW011 15/14 A3006 RMK AO2 DZB20E29 SLP186 P0000 T01450142

More Conditions Fewer Conditions

Pressure 30.08 in
Visibility 7.0 miles
Clouds Few 1100 ft
Dew Point 3 °F
Humidity 10%
Rainfall 0.00 in
Snow Depth Not available.
UV 0 out of 12
Pollen 7.90 out of 12
Air Quality Not available.
Flu Activity Local Activity
METAR KLFI 191058Z AUTO 04011KT 7SM FEW011 15/14 A3006 RMK AO2 DZB20E29 SLP186 P0000 T01450142

More Conditions Fewer Conditions

10-Day Weather Forecast

Almanac

Astronomy

Apr. 19, 2015 Rise Set
Actual Time
Civil Twilight
Nautical Twilight
Astronomical Twilight
Moon
Length of Visible Light
Length of Day
Tomorrow will be .
, % of the Moon is Illuminated

Today's Extremes

State Highs State Lows

Community

WunderPhotos

Upload Photos

1,814,756 photos uploaded!

WunderBlogs® & News

Nearby

Air Quality

  Air Quality AQ Index Pollutant
Not available.

Snow Depth

Station Depth Elevation

Earthquake Activity

City Distance Mag. Time & Date
Minimum magnitude displayed is 2.5.

Coastal Water Temperatures

Place Temperature

Stations

Nearby Weather Stations

Station Location Temp. Windchill Dew Point Humidity Wind Precip. Elev Updated Type
                   
Special Statement
Statement as of 5:41 AM EDT on April 19, 2015

... Locally dense fog across southeast Virginia and northeast North
Carolina this morning...

Locally dense fog will reduce visibility to around a quarter mile
across parts of southeast Virginia and northeast North Carolina
through 8 am.

Motorists should be alert for sudden changes in visibility while
traveling this morning. Drive at reduced speeds and use low beam
headlights.



Jm


541 am EDT sun Apr 19 2015

... Locally dense fog across southeast Virginia and northeast North
Carolina this morning...

Locally dense fog will reduce visibility to around a quarter mile
across parts of southeast Virginia and northeast North Carolina
through 8 am.

Motorists should be alert for sudden changes in visibility while
traveling this morning. Drive at reduced speeds and use low beam
headlights.



Jm